الصفحة الرئيسية
METAR-TAF:

METAR-TAF

مطار :

Montrose Regional Airport

Montrose, كولورادو, الولايات المتحدة

دائرة عرض: 38-30-18N, خط طول: 107-53-51W, ارتفاع: 1755 متر

مراقبة الطقس الحالي

تاريخ ووقت الإصدار 1ساعة و 0 دقيقة قبل الساعة 14:53UTC
ريح 7 عقدة من الجنوب/الجنوب الشرقي
درجة الحرارة -10°درجة مئوية
الرطوبة 72%
ضغط 1033 hPa
الرؤية: 16.1 كم
سماء صافية

METAR: KMTJ 141453Z AUTO 15007KT 10SM CLR M10/M14 A3051 RMK AO2 SLP374 T11001139 51009

زمن: 08:53 (15:53 UTC)

توقعات

تاريخ ووقت الإصدار 4ساعات و 33 دقيقة قبل الساعة 11:20UTC
التوقعات صالحة من14 الساعة 12 UTC إلى 15 الساعة 12 UTC
ريح 6 عقدة من الشرق/الجنوب الشرقي
الرؤية: 10 كم
سماء صافية
من 14 الساعة 1700 UTC
ريح عقدة من الشمال
الرؤية: 10 كم
سماء صافية
من 15 الساعة 0900 UTC
ريح 5 عقدة من الجنوب الشرقي
الرؤية: 10 كم
غيوم مفككة على ارتفاع 20000 قدم

TAF: KMTJ 141120Z 1412/1512 12006KT P6SM SKC FM141700 00000KT P6SM SKC FM150900 13005KT P6SM BKN200

أرصاد الطقس والتوقعات من أكثر من 4000 مطار (تقارير الطقس للمطار METAR والتنبؤ بالطقس بالمطارTAF).

المحطات المتاحة هي النقط الصفراء والحمراء على الخريطة.

حرك المؤشر فوق النقطة لمعرفة اسم المحطة.

ثم انقر لمعرفة أرصاد وتوقعات الطقس.

لتغيير الخارطة: اضغط على الأزرار الخضراء مع رمز الصليب الأسود للتكبير. على الزر الأخضر مع شرطة للتصغير، أو على الأسهم الخضراء للخرائط المجاورة.


METAR-TAF: